createdAt,value
2023-01-13T00:00:08.829Z,97.70
2023-01-13T00:02:35.397Z,98.72
2023-01-13T00:05:04.594Z,99.84
2023-01-13T00:07:32.552Z,97.46
2023-01-13T00:09:59.053Z,99.55
2023-01-13T00:12:25.561Z,98.28
2023-01-13T00:14:52.105Z,96.52
2023-01-13T00:17:18.725Z,98.17
2023-01-13T00:19:45.197Z,98.65
2023-01-13T00:22:11.706Z,98.22
2023-01-13T00:24:39.547Z,97.35
2023-01-13T00:27:06.108Z,97.51
2023-01-13T00:29:32.722Z,98.97
2023-01-13T00:31:59.221Z,99.17
2023-01-13T00:34:25.725Z,98.82
2023-01-13T00:36:52.243Z,98.62
2023-01-13T00:39:18.812Z,97.72
2023-01-13T00:41:46.675Z,97.86
2023-01-13T00:44:13.191Z,97.75
2023-01-13T00:46:39.765Z,97.51
2023-01-13T00:49:06.277Z,99.39
2023-01-13T00:51:34.947Z,97.26
2023-01-13T00:54:01.510Z,95.88
2023-01-13T00:56:39.594Z,95.05
2023-01-13T00:59:10.573Z,95.52
2023-01-13T01:01:37.412Z,97.60
2023-01-13T01:04:04.223Z,96.64
2023-01-13T01:06:30.747Z,97.34
2023-01-13T01:08:57.521Z,98.05
2023-01-13T01:11:25.869Z,96.60
2023-01-13T01:13:54.294Z,96.90
2023-01-13T01:16:24.112Z,97.78
2023-01-13T01:18:52.435Z,98.30
2023-01-13T01:21:19.837Z,99.87
2023-01-13T01:23:46.368Z,97.59
2023-01-13T01:26:14.819Z,97.64
2023-01-13T01:28:41.820Z,99.75
2023-01-13T01:31:14.164Z,98.78
2023-01-13T01:33:42.619Z,99.71
2023-01-13T01:36:11.253Z,99.41
2023-01-13T01:38:37.864Z,99.16
2023-01-13T01:41:04.668Z,100.00
2023-01-13T01:43:50.139Z,98.76
2023-01-13T01:46:16.685Z,98.96
2023-01-13T01:48:44.556Z,100.00
2023-01-13T01:51:13.172Z,99.05
2023-01-13T01:53:40.417Z,100.00
2023-01-13T01:56:10.592Z,99.85
2023-01-13T01:58:42.954Z,98.77
2023-01-13T02:01:10.108Z,99.37
2023-01-13T02:03:39.184Z,97.59
2023-01-13T02:06:08.427Z,95.88
2023-01-13T02:08:36.924Z,97.55
2023-01-13T02:11:03.493Z,95.14
2023-01-13T02:13:30.065Z,94.27
2023-01-13T02:16:08.425Z,92.36
2023-01-13T02:18:45.138Z,92.77
2023-01-13T02:21:44.610Z,92.74
2023-01-13T02:24:40.562Z,94.62
2023-01-13T02:27:36.203Z,92.84
2023-01-13T02:30:17.076Z,91.64
2023-01-13T02:32:59.226Z,90.21
2023-01-13T02:35:33.007Z,91.69
2023-01-13T02:38:00.452Z,90.25
2023-01-13T02:40:33.147Z,88.06
2023-01-13T02:43:06.116Z,86.59
2023-01-13T02:45:37.778Z,87.13
2023-01-13T02:48:08.824Z,87.66
2023-01-13T02:50:40.066Z,87.19
2023-01-13T02:53:12.806Z,86.72
2023-01-13T02:55:44.451Z,88.19
2023-01-13T02:58:14.683Z,86.69
2023-01-13T03:00:45.742Z,88.88
2023-01-13T03:03:12.141Z,89.01
2023-01-13T03:05:41.972Z,88.17
2023-01-13T03:08:21.141Z,87.05
2023-01-13T03:11:03.608Z,87.05
2023-01-13T03:13:45.647Z,87.75
2023-01-13T03:16:20.771Z,86.75
2023-01-13T03:18:55.709Z,86.99
2023-01-13T03:21:28.371Z,84.30
2023-01-13T03:24:02.828Z,84.75
2023-01-13T03:26:35.053Z,85.00
2023-01-13T03:29:08.750Z,83.80
2023-01-13T03:31:40.129Z,82.80
2023-01-13T03:34:13.176Z,81.02
2023-01-13T03:36:41.978Z,78.83
2023-01-13T03:39:12.149Z,79.82
2023-01-13T03:41:44.252Z,79.24
2023-01-13T03:44:15.647Z,77.75
2023-01-13T03:46:49.237Z,78.18
2023-01-13T03:49:20.169Z,78.50
2023-01-13T03:51:51.467Z,79.05
2023-01-13T03:54:21.480Z,78.95
2023-01-13T03:56:54.515Z,79.18
2023-01-13T03:59:26.155Z,76.32
2023-01-13T04:02:01.418Z,76.39
2023-01-13T04:04:32.448Z,76.84
2023-01-13T04:07:09.851Z,76.21
2023-01-13T04:09:45.800Z,75.40
2023-01-13T04:12:17.814Z,77.95
2023-01-13T04:14:45.151Z,77.92
2023-01-13T04:17:13.319Z,76.72
2023-01-13T04:19:39.708Z,76.40
2023-01-13T04:22:06.064Z,78.49
2023-01-13T04:24:32.416Z,76.90
2023-01-13T04:26:58.848Z,76.95
2023-01-13T04:29:25.201Z,76.90
2023-01-13T04:31:51.521Z,77.60
2023-01-13T04:34:19.467Z,78.98
2023-01-13T04:36:45.850Z,79.20
2023-01-13T04:39:12.462Z,79.54
2023-01-13T04:41:38.833Z,78.27
2023-01-13T04:44:05.384Z,77.85
2023-01-13T04:46:31.748Z,79.42
2023-01-13T04:48:58.160Z,77.35
2023-01-13T04:51:25.810Z,78.56
2023-01-13T04:53:52.187Z,78.25
2023-01-13T04:56:18.552Z,77.90
2023-01-13T04:58:44.889Z,77.56
2023-01-13T05:01:11.282Z,78.16
2023-01-13T05:03:37.744Z,76.33
2023-01-13T05:06:04.253Z,78.81
2023-01-13T05:08:31.920Z,78.97
2023-01-13T05:10:59.766Z,79.19
2023-01-13T05:13:26.119Z,79.03
2023-01-13T05:15:52.478Z,78.10
2023-01-13T05:18:19.324Z,78.28
2023-01-13T05:20:45.724Z,79.05
2023-01-13T05:23:12.362Z,80.63
2023-01-13T05:25:44.127Z,80.48
2023-01-13T05:28:11.203Z,79.45
2023-01-13T05:30:40.713Z,79.76
2023-01-13T05:33:09.245Z,78.61
2023-01-13T05:35:38.123Z,78.70
2023-01-13T05:38:04.452Z,78.60
2023-01-13T05:40:31.127Z,79.07
2023-01-13T05:43:04.083Z,78.82
2023-01-13T05:45:31.090Z,79.25
2023-01-13T05:47:57.996Z,79.02
2023-01-13T05:50:24.769Z,79.97
2023-01-13T05:52:51.169Z,78.37
2023-01-13T05:55:17.674Z,78.86
2023-01-13T05:57:44.024Z,77.42
2023-01-13T06:00:13.088Z,77.92
2023-01-13T06:02:39.468Z,77.34
2023-01-13T06:05:06.243Z,77.65
2023-01-13T06:07:32.602Z,78.97
2023-01-13T06:09:58.966Z,79.79
2023-01-13T06:12:25.347Z,77.67
2023-01-13T06:14:51.725Z,76.44
2023-01-13T06:17:19.397Z,75.93
2023-01-13T06:19:45.857Z,74.31
2023-01-13T06:22:16.162Z,76.14
2023-01-13T06:24:43.165Z,75.65
2023-01-13T06:27:09.734Z,75.65
2023-01-13T06:29:36.093Z,74.84
2023-01-13T06:32:05.646Z,74.47
2023-01-13T06:34:34.860Z,75.40
2023-01-13T06:37:03.793Z,75.13
2023-01-13T06:39:31.384Z,74.88
2023-01-13T06:41:58.467Z,74.13
2023-01-13T06:44:25.097Z,74.77
2023-01-13T06:46:51.741Z,74.08
2023-01-13T06:49:21.808Z,75.74
2023-01-13T06:51:49.590Z,75.17
2023-01-13T06:54:16.017Z,76.92
2023-01-13T06:56:42.423Z,75.67
2023-01-13T06:59:08.970Z,76.67
2023-01-13T07:01:35.485Z,76.75
2023-01-13T07:04:01.965Z,76.54
2023-01-13T07:06:28.533Z,78.06
2023-01-13T07:08:56.209Z,76.95
2023-01-13T07:11:25.321Z,77.37
2023-01-13T07:13:51.744Z,77.10
2023-01-13T07:16:18.144Z,75.83
2023-01-13T07:18:44.526Z,76.07
2023-01-13T07:21:12.275Z,75.27
2023-01-13T07:23:40.172Z,76.89
2023-01-13T07:26:09.384Z,76.41
2023-01-13T07:28:36.537Z,75.18
2023-01-13T07:31:03.588Z,74.90
2023-01-13T07:33:29.935Z,74.70
2023-01-13T07:35:57.868Z,75.21
2023-01-13T07:38:24.286Z,74.94
2023-01-13T07:40:50.681Z,74.51
2023-01-13T07:43:21.097Z,75.71
2023-01-13T07:45:47.456Z,74.62
2023-01-13T07:48:13.974Z,73.16
2023-01-13T07:50:42.697Z,74.38
2023-01-13T07:53:10.292Z,74.47
2023-01-13T07:55:41.697Z,74.40
2023-01-13T07:58:08.353Z,74.08
2023-01-13T08:00:36.319Z,73.99
2023-01-13T08:03:04.712Z,74.12
2023-01-13T08:05:31.148Z,72.74
2023-01-13T08:07:57.761Z,72.89
2023-01-13T08:10:24.154Z,73.01
2023-01-13T08:12:53.065Z,71.09
2023-01-13T08:15:23.338Z,71.45
2023-01-13T08:17:51.146Z,71.81
2023-01-13T08:20:17.776Z,70.71
2023-01-13T08:22:44.129Z,70.73
2023-01-13T08:25:10.504Z,72.40
2023-01-13T08:27:36.948Z,72.79
2023-01-13T08:30:04.315Z,74.18
2023-01-13T08:32:30.954Z,72.55
2023-01-13T08:34:58.663Z,73.05
2023-01-13T08:37:25.022Z,73.73
2023-01-13T08:39:51.412Z,73.67
2023-01-13T08:42:17.793Z,73.24
2023-01-13T08:44:48.337Z,73.10
2023-01-13T08:47:14.692Z,73.68
2023-01-13T08:49:41.125Z,73.31
2023-01-13T08:52:09.129Z,73.12
2023-01-13T08:54:37.863Z,72.20
2023-01-13T08:57:04.431Z,72.05
2023-01-13T08:59:31.133Z,72.11
2023-01-13T09:01:57.646Z,71.47
2023-01-13T09:04:26.673Z,71.51
2023-01-13T09:06:53.817Z,71.68
2023-01-13T09:09:22.413Z,71.91
2023-01-13T09:11:50.744Z,70.94
2023-01-13T09:14:18.882Z,70.36
2023-01-13T09:16:45.265Z,70.15
2023-01-13T09:19:11.599Z,70.20
2023-01-13T09:21:37.967Z,67.57
2023-01-13T09:24:04.693Z,68.93
2023-01-13T09:26:32.451Z,70.29
2023-01-13T09:28:58.842Z,69.08
2023-01-13T09:31:25.332Z,69.39
2023-01-13T09:33:51.739Z,68.50
2023-01-13T09:36:18.773Z,66.96
2023-01-13T09:38:45.202Z,67.88
2023-01-13T09:41:19.783Z,69.62
2023-01-13T09:43:53.971Z,68.45
2023-01-13T09:46:23.732Z,69.51
2023-01-13T09:48:50.170Z,67.49
2023-01-13T09:51:22.251Z,68.78
2023-01-13T09:53:54.529Z,66.85
2023-01-13T09:56:22.278Z,66.81
2023-01-13T09:58:50.212Z,65.52
2023-01-13T10:01:23.791Z,66.58
2023-01-13T10:03:50.351Z,66.92
2023-01-13T10:06:21.352Z,67.11
2023-01-13T10:08:48.949Z,66.91
2023-01-13T10:11:17.657Z,66.41
2023-01-13T10:13:44.065Z,67.07
2023-01-13T10:16:27.035Z,66.59
2023-01-13T10:19:04.679Z,67.58
2023-01-13T10:22:00.235Z,66.60
2023-01-13T10:24:35.616Z,67.60
2023-01-13T10:27:04.439Z,67.62
2023-01-13T10:29:31.593Z,66.74
2023-01-13T10:32:00.302Z,66.72
2023-01-13T10:34:28.105Z,67.67
2023-01-13T10:36:59.847Z,68.32
2023-01-13T10:39:26.601Z,66.89
2023-01-13T10:42:01.393Z,68.17
2023-01-13T10:44:27.773Z,66.25
2023-01-13T10:46:55.925Z,66.78
2023-01-13T10:49:30.039Z,65.63
2023-01-13T10:51:56.553Z,66.85
2023-01-13T10:54:24.671Z,65.05
2023-01-13T10:57:15.117Z,64.72
2023-01-13T10:59:41.999Z,64.04
2023-01-13T11:02:25.976Z,63.28
2023-01-13T11:05:08.926Z,63.39
2023-01-13T11:07:38.548Z,63.48
2023-01-13T11:10:19.481Z,62.48
2023-01-13T11:12:52.204Z,63.17
2023-01-13T11:15:22.849Z,64.48
2023-01-13T11:17:53.060Z,62.98
2023-01-13T11:20:24.897Z,64.54
2023-01-13T11:22:54.218Z,64.71
2023-01-13T11:25:24.825Z,64.71
2023-01-13T11:27:57.620Z,65.80
2023-01-13T11:30:36.114Z,65.24
2023-01-13T11:33:17.166Z,64.36
2023-01-13T11:35:48.577Z,64.39
2023-01-13T11:38:26.127Z,64.79
2023-01-13T11:40:52.530Z,63.91
2023-01-13T11:43:26.317Z,64.73
2023-01-13T11:45:55.708Z,65.79
2023-01-13T11:48:24.974Z,65.03
2023-01-13T11:50:59.948Z,64.90
2023-01-13T11:53:43.767Z,64.17
2023-01-13T11:56:26.358Z,65.52
2023-01-13T11:59:12.259Z,65.82
2023-01-13T12:01:55.678Z,66.22
2023-01-13T12:04:27.886Z,66.55
2023-01-13T12:07:10.369Z,66.86
2023-01-13T12:09:48.488Z,65.08
2023-01-13T12:12:21.903Z,66.46
2023-01-13T12:15:12.203Z,67.68
2023-01-13T12:17:51.702Z,65.56
2023-01-13T12:20:30.148Z,65.08
2023-01-13T12:23:01.418Z,64.68
2023-01-13T12:25:33.265Z,64.95
2023-01-13T12:28:04.536Z,65.56
2023-01-13T12:30:39.110Z,64.99
2023-01-13T12:33:24.081Z,65.61
2023-01-13T12:35:59.111Z,66.68
2023-01-13T12:38:35.952Z,67.03
2023-01-13T12:41:12.820Z,67.09
2023-01-13T12:43:45.613Z,67.81
2023-01-13T12:46:48.716Z,68.29
2023-01-13T12:49:23.914Z,69.42
2023-01-13T12:52:15.434Z,68.38
2023-01-13T12:55:11.780Z,69.17
2023-01-13T12:57:38.153Z,67.95
2023-01-13T13:00:16.505Z,67.22
2023-01-13T13:03:03.497Z,66.73
2023-01-13T13:05:43.294Z,67.15
2023-01-13T13:08:16.429Z,66.48
2023-01-13T13:10:57.388Z,67.46
2023-01-13T13:13:44.051Z,67.54
2023-01-13T13:16:36.993Z,66.34
2023-01-13T13:19:40.492Z,67.94
2023-01-13T13:22:16.669Z,70.45
2023-01-13T13:25:03.764Z,71.87
2023-01-13T13:27:40.452Z,73.79
2023-01-13T13:30:14.410Z,75.14
2023-01-13T13:33:03.086Z,76.38
2023-01-13T13:35:49.469Z,79.13
2023-01-13T13:38:25.501Z,81.87
2023-01-13T13:40:52.422Z,81.53
2023-01-13T13:43:20.435Z,82.44
2023-01-13T13:45:51.350Z,82.21
2023-01-13T13:48:24.399Z,82.63
2023-01-13T13:50:54.901Z,84.05
2023-01-13T13:53:23.587Z,82.74
2023-01-13T13:55:55.716Z,84.24
2023-01-13T13:58:23.758Z,83.54
2023-01-13T14:00:50.932Z,80.85
2023-01-13T14:03:24.117Z,80.55
2023-01-13T14:05:56.347Z,81.85
2023-01-13T14:08:23.537Z,82.29
2023-01-13T14:10:50.394Z,80.58
2023-01-13T14:13:20.907Z,79.10
2023-01-13T14:15:54.885Z,79.86
2023-01-13T14:18:21.753Z,79.91
2023-01-13T14:20:59.618Z,79.37
2023-01-13T14:23:27.936Z,78.21
2023-01-13T14:25:55.024Z,77.33
2023-01-13T14:28:26.316Z,77.57
2023-01-13T14:30:55.477Z,78.22
2023-01-13T14:33:26.842Z,75.82
2023-01-13T14:36:16.441Z,75.70
2023-01-13T14:38:45.064Z,76.93
2023-01-13T14:41:18.816Z,75.73
2023-01-13T14:43:45.863Z,76.28
2023-01-13T14:46:13.932Z,75.63
2023-01-13T14:48:42.249Z,75.78
2023-01-13T14:51:11.016Z,74.81
2023-01-13T14:53:39.631Z,75.62
2023-01-13T14:56:36.271Z,76.04
2023-01-13T14:59:33.657Z,75.25
2023-01-13T15:02:02.286Z,76.42
2023-01-13T15:04:33.198Z,75.53
2023-01-13T15:07:01.053Z,75.33
2023-01-13T15:09:30.931Z,76.42
2023-01-13T15:11:57.370Z,75.64
2023-01-13T15:14:29.188Z,74.55
2023-01-13T15:16:56.027Z,77.01
2023-01-13T15:19:23.706Z,76.17
2023-01-13T15:21:50.085Z,73.85
2023-01-13T15:24:16.482Z,73.75
2023-01-13T15:26:42.829Z,74.29
2023-01-13T15:29:13.145Z,75.26
2023-01-13T15:31:39.524Z,75.33
2023-01-13T15:34:06.114Z,73.41
2023-01-13T15:36:34.287Z,73.75
2023-01-13T15:39:01.389Z,74.46
2023-01-13T15:41:27.882Z,74.15
2023-01-13T15:43:54.231Z,74.66
2023-01-13T15:46:20.886Z,73.80
2023-01-13T15:48:54.694Z,72.44
2023-01-13T15:51:21.479Z,72.10
2023-01-13T15:53:49.328Z,71.80
2023-01-13T15:56:20.205Z,72.82
2023-01-13T15:58:46.584Z,72.13
2023-01-13T16:01:13.031Z,72.80
2023-01-13T16:03:39.473Z,73.00
2023-01-13T16:06:14.536Z,73.65
2023-01-13T16:08:41.054Z,74.19
2023-01-13T16:11:10.285Z,73.71
2023-01-13T16:13:36.703Z,73.69
2023-01-13T16:16:03.992Z,72.07
2023-01-13T16:18:30.360Z,72.90
2023-01-13T16:20:56.770Z,72.99
2023-01-13T16:23:23.147Z,72.72
2023-01-13T16:25:50.177Z,74.52
2023-01-13T16:28:21.575Z,73.02
2023-01-13T16:30:48.123Z,73.14
2023-01-13T16:33:14.513Z,72.55
2023-01-13T16:36:08.904Z,72.24
2023-01-13T16:38:27.304Z,74.76
2023-01-13T16:40:56.744Z,74.97
2023-01-13T16:43:24.421Z,75.22
2023-01-13T16:45:50.818Z,74.38
2023-01-13T16:48:19.625Z,75.98
2023-01-13T16:50:46.727Z,77.29
2023-01-13T16:53:16.001Z,76.62
2023-01-13T16:55:43.177Z,78.61
2023-01-13T16:58:17.397Z,77.62
2023-01-13T17:00:45.666Z,76.77
2023-01-13T17:03:12.423Z,76.98
2023-01-13T17:05:40.086Z,77.23
2023-01-13T17:08:06.598Z,76.64
2023-01-13T17:10:32.951Z,76.19
2023-01-13T17:13:04.586Z,77.15
2023-01-13T17:15:39.972Z,74.33
2023-01-13T17:18:07.674Z,74.76
2023-01-13T17:20:37.170Z,75.66
2023-01-13T17:23:03.999Z,76.35
2023-01-13T17:25:30.372Z,76.21
2023-01-13T17:27:59.745Z,77.24
2023-01-13T17:30:26.552Z,76.66
2023-01-13T17:32:52.945Z,75.15
2023-01-13T17:35:20.745Z,74.59
2023-01-13T17:37:47.130Z,77.23
2023-01-13T17:40:13.514Z,77.02
2023-01-13T17:42:39.897Z,77.03
2023-01-13T17:45:07.373Z,75.95
2023-01-13T17:47:33.725Z,75.06
2023-01-13T17:50:00.076Z,75.75
2023-01-13T17:52:29.578Z,77.30
2023-01-13T17:54:55.966Z,76.18
2023-01-13T17:57:22.319Z,77.92
2023-01-13T17:59:48.955Z,77.73
2023-01-13T18:02:15.416Z,78.01
2023-01-13T18:04:41.901Z,76.90
2023-01-13T18:07:08.339Z,78.39
2023-01-13T18:09:36.039Z,77.98
2023-01-13T18:12:02.422Z,78.75
2023-01-13T18:14:28.832Z,76.82
2023-01-13T18:16:55.220Z,77.21
2023-01-13T18:19:21.682Z,79.01
2023-01-13T18:21:48.162Z,77.82
2023-01-13T18:24:16.366Z,80.36
2023-01-13T18:26:44.041Z,79.23
2023-01-13T18:29:10.815Z,80.86
2023-01-13T18:31:37.237Z,80.76
2023-01-13T18:34:03.619Z,81.48
2023-01-13T18:36:29.995Z,79.76
2023-01-13T18:38:58.147Z,80.55
2023-01-13T18:41:24.584Z,83.54
2023-01-13T18:43:52.297Z,83.74
2023-01-13T18:46:18.706Z,83.28
2023-01-13T18:48:45.130Z,84.02
2023-01-13T18:51:11.522Z,83.88
2023-01-13T18:53:37.900Z,83.51
2023-01-13T18:56:09.224Z,83.04
2023-01-13T18:58:35.682Z,83.35
2023-01-13T19:01:03.990Z,81.06
2023-01-13T19:03:30.766Z,79.86
2023-01-13T19:06:01.525Z,80.13
2023-01-13T19:08:27.946Z,80.93
2023-01-13T19:10:54.302Z,79.66
2023-01-13T19:13:20.677Z,80.83
2023-01-13T19:15:47.084Z,80.26
2023-01-13T19:18:15.212Z,80.13
2023-01-13T19:20:41.584Z,81.03
2023-01-13T19:23:07.987Z,80.96
2023-01-13T19:25:34.381Z,78.62
2023-01-13T19:28:00.747Z,78.61
2023-01-13T19:30:27.453Z,78.01
2023-01-13T19:32:53.843Z,78.10
2023-01-13T19:35:21.738Z,77.69
2023-01-13T19:37:48.163Z,76.94
2023-01-13T19:40:14.832Z,78.04
2023-01-13T19:42:42.561Z,76.62
2023-01-13T19:45:13.103Z,77.87
2023-01-13T19:47:39.472Z,76.45
2023-01-13T19:50:06.482Z,76.34
2023-01-13T19:52:34.489Z,76.91
2023-01-13T19:55:00.891Z,77.47
2023-01-13T19:57:27.449Z,78.24
2023-01-13T19:59:53.827Z,76.21
2023-01-13T20:02:22.301Z,77.74
2023-01-13T20:04:48.671Z,76.02
2023-01-13T20:07:15.034Z,76.30
2023-01-13T20:09:43.893Z,76.65
2023-01-13T20:12:11.140Z,78.73
2023-01-13T20:14:37.539Z,77.43
2023-01-13T20:17:04.031Z,78.09
2023-01-13T20:19:30.448Z,79.65
2023-01-13T20:21:56.849Z,78.13
2023-01-13T20:24:23.210Z,80.04
2023-01-13T20:26:50.928Z,79.29
2023-01-13T20:29:17.293Z,79.88
2023-01-13T20:31:43.725Z,79.23
2023-01-13T20:34:10.408Z,80.69
2023-01-13T20:36:36.804Z,78.99
2023-01-13T20:39:05.714Z,79.40
2023-01-13T20:41:32.360Z,78.78
2023-01-13T20:44:00.033Z,78.25
2023-01-13T20:46:26.454Z,79.28
2023-01-13T20:48:52.829Z,78.11
2023-01-13T20:51:19.169Z,76.23
2023-01-13T20:53:45.542Z,77.63
2023-01-13T20:56:13.475Z,79.01
2023-01-13T20:58:40.810Z,78.84
2023-01-13T21:01:08.552Z,81.92
2023-01-13T21:03:35.098Z,83.34
2023-01-13T21:06:01.502Z,80.51
2023-01-13T21:08:27.883Z,82.05
2023-01-13T21:11:00.128Z,84.54
2023-01-13T21:13:26.827Z,84.64
2023-01-13T21:15:53.191Z,88.14
2023-01-13T21:18:21.268Z,87.17
2023-01-13T21:20:47.647Z,86.31
2023-01-13T21:23:14.135Z,88.63
2023-01-13T21:25:40.710Z,91.84
2023-01-13T21:28:07.157Z,90.10
2023-01-13T21:30:34.397Z,91.36
2023-01-13T21:33:00.834Z,90.69
2023-01-13T21:35:28.595Z,91.12
2023-01-13T21:37:54.966Z,93.15
2023-01-13T21:40:24.746Z,90.87
2023-01-13T21:42:51.095Z,88.05
2023-01-13T21:45:18.377Z,85.97
2023-01-13T21:47:45.025Z,85.63
2023-01-13T21:50:12.941Z,87.25
2023-01-13T21:52:40.614Z,83.87
2023-01-13T21:55:07.618Z,84.15
2023-01-13T21:57:33.986Z,83.96
2023-01-13T22:00:00.357Z,83.14
2023-01-13T22:02:26.905Z,84.77
2023-01-13T22:04:53.299Z,83.31
2023-01-13T22:07:19.655Z,81.16
2023-01-13T22:09:47.359Z,82.05
2023-01-13T22:12:14.851Z,82.37
2023-01-13T22:14:41.221Z,81.78
2023-01-13T22:17:07.635Z,81.83
2023-01-13T22:19:33.991Z,80.70
2023-01-13T22:22:00.339Z,82.94
2023-01-13T22:24:26.769Z,81.56
2023-01-13T22:26:54.457Z,78.84
2023-01-13T22:29:20.864Z,80.94
2023-01-13T22:31:47.350Z,80.96
2023-01-13T22:34:13.713Z,80.91
2023-01-13T22:36:40.057Z,81.01
2023-01-13T22:39:06.492Z,81.73
2023-01-13T22:41:32.844Z,81.73
2023-01-13T22:44:00.571Z,81.82
2023-01-13T22:46:27.007Z,82.74
2023-01-13T22:48:53.423Z,83.21
2023-01-13T22:51:19.820Z,82.12
2023-01-13T22:53:46.201Z,82.68
2023-01-13T22:56:16.769Z,81.30
2023-01-13T22:58:43.968Z,82.29
2023-01-13T23:01:13.498Z,82.32
2023-01-13T23:03:40.592Z,82.88
2023-01-13T23:06:07.030Z,81.87
2023-01-13T23:08:34.305Z,81.57
2023-01-13T23:11:01.848Z,81.53
2023-01-13T23:13:28.260Z,81.97
2023-01-13T23:15:54.654Z,82.83
2023-01-13T23:18:24.825Z,82.40
2023-01-13T23:20:51.183Z,82.07
2023-01-13T23:23:17.558Z,82.42
2023-01-13T23:25:48.928Z,81.35
2023-01-13T23:28:15.297Z,82.24
2023-01-13T23:30:41.778Z,82.48
2023-01-13T23:33:08.140Z,83.43
2023-01-13T23:35:35.798Z,84.17
2023-01-13T23:38:02.237Z,83.41
2023-01-13T23:40:28.613Z,82.79
2023-01-13T23:42:55.024Z,82.67
2023-01-13T23:45:21.794Z,82.84
2023-01-13T23:47:48.175Z,82.68
2023-01-13T23:50:14.621Z,81.75
2023-01-13T23:52:42.556Z,82.18
2023-01-13T23:55:09.388Z,81.85
2023-01-13T23:57:35.721Z,80.61
